Time;durP1;ratioP1;P1;durP2;ratioP2;P2;SDS_P1;SDS_P2;PMS_P1;PMS_P2;Temp;Humidity;BMP_temperature;BMP_pressure;BME280_temperature;BME280_humidity;BME280_pressure;Samples;Min_cycle;Max_cycle;Signal;HPM_P1;HPM_P2
2023/06/16 00:02:01;;;;;;;12.47;11.27;;;17.10;89.00;;;;;;5034048;28;20530;-71
2023/06/16 00:04:29;;;;;;;13.30;12.07;;;17.10;89.10;;;;;;5033682;28;20466;-71
2023/06/16 00:06:58;;;;;;;13.83;12.37;;;17.10;89.30;;;;;;5034123;28;20452;-71
2023/06/16 00:09:27;;;;;;;15.80;14.20;;;17.10;89.40;;;;;;5033187;28;20443;-71
2023/06/16 00:11:56;;;;;;;17.23;14.80;;;17.10;89.60;;;;;;5043333;28;20796;-70
2023/06/16 00:14:24;;;;;;;15.00;13.50;;;17.10;89.70;;;;;;5043204;28;20521;-70
2023/06/16 00:16:52;;;;;;;16.13;14.60;;;17.00;89.90;;;;;;5038434;28;20814;-70
2023/06/16 00:19:21;;;;;;;15.83;14.33;;;17.00;90.00;;;;;;5040318;28;20879;-70
2023/06/16 00:21:50;;;;;;;16.13;14.50;;;17.00;90.20;;;;;;5039818;28;20439;-71
2023/06/16 00:24:18;;;;;;;14.70;12.90;;;17.00;90.60;;;;;;5037492;28;20473;-71
2023/06/16 00:26:47;;;;;;;17.40;15.67;;;16.90;90.40;;;;;;5037957;28;20449;-71
2023/06/16 00:29:16;;;;;;;17.67;16.07;;;16.90;90.50;;;;;;5036806;28;20467;-70
2023/06/16 00:31:44;;;;;;;16.17;14.63;;;16.90;90.60;;;;;;5037113;28;20438;-71
2023/06/16 00:34:12;;;;;;;16.07;14.37;;;16.90;90.70;;;;;;5037230;28;20999;-71
2023/06/16 00:36:40;;;;;;;18.80;16.93;;;16.80;90.70;;;;;;5037325;28;20453;-71
2023/06/16 00:39:09;;;;;;;17.87;16.07;;;16.80;90.80;;;;;;5035361;28;20825;-71
2023/06/16 00:41:38;;;;;;;18.10;16.40;;;16.80;90.90;;;;;;5036989;28;20948;-71
2023/06/16 00:44:07;;;;;;;19.07;17.30;;;16.80;91.00;;;;;;5036974;28;20561;-71
2023/06/16 00:46:37;;;;;;;19.43;17.63;;;16.80;91.10;;;;;;5036792;28;20784;-71
2023/06/16 00:49:07;;;;;;;19.40;17.50;;;16.70;91.20;;;;;;5035428;28;20555;-71
2023/06/16 00:51:35;;;;;;;18.30;16.67;;;16.70;91.20;;;;;;5035040;28;20483;-71
2023/06/16 00:54:04;;;;;;;17.70;15.90;;;16.70;91.30;;;;;;5034975;28;20483;-71
2023/06/16 00:56:34;;;;;;;17.53;15.97;;;16.70;91.30;;;;;;5036624;28;20406;-71
2023/06/16 00:59:02;;;;;;;17.07;15.37;;;16.70;91.40;;;;;;5034737;28;20971;-70
2023/06/16 01:01:34;;;;;;;16.73;15.10;;;16.70;91.50;;;;;;5036180;28;20492;-71
2023/06/16 01:04:03;;;;;;;15.43;13.83;;;16.60;91.50;;;;;;5035009;28;20466;-71
2023/06/16 01:06:47;;;;;;;16.60;15.10;;;16.60;91.60;;;;;;5035178;28;20509;-71
2023/06/16 01:09:24;;;;;;;17.13;15.50;;;16.60;91.70;;;;;;5035227;28;20628;-70
2023/06/16 01:12:03;;;;;;;17.33;15.83;;;16.60;91.70;;;;;;5036531;28;20958;-71
2023/06/16 01:14:46;;;;;;;17.57;15.90;;;16.60;91.80;;;;;;5034997;28;20493;-70
2023/06/16 01:17:17;;;;;;;17.60;15.80;;;16.60;91.90;;;;;;5035050;28;20558;-70
2023/06/16 01:19:53;;;;;;;17.43;15.73;;;16.60;91.90;;;;;;5035351;28;20435;-71
2023/06/16 01:22:35;;;;;;;18.77;16.70;;;16.50;92.00;;;;;;5034447;28;20493;-70
2023/06/16 01:25:07;;;;;;;19.07;17.27;;;16.50;92.10;;;;;;5034410;28;20437;-70
2023/06/16 01:27:39;;;;;;;18.00;16.30;;;16.50;92.20;;;;;;5036793;28;20478;-71
2023/06/16 01:30:08;;;;;;;18.87;17.13;;;16.50;92.20;;;;;;5034628;28;20512;-70
2023/06/16 01:32:36;;;;;;;19.40;17.50;;;16.40;92.30;;;;;;5034494;28;20443;-70
2023/06/16 01:35:06;;;;;;;19.30;17.30;;;16.40;92.40;;;;;;5035882;28;20420;-71
2023/06/16 01:37:37;;;;;;;20.63;18.67;;;16.40;92.50;;;;;;5034654;28;20886;-71
2023/06/16 01:40:09;;;;;;;19.23;17.43;;;16.40;92.60;;;;;;5034684;28;21043;-71
2023/06/16 01:42:38;;;;;;;19.50;17.50;;;16.30;92.70;;;;;;5036028;28;20423;-70
2023/06/16 01:45:08;;;;;;;20.10;18.20;;;16.30;92.80;;;;;;5034328;28;20865;-70
2023/06/16 01:47:36;;;;;;;19.90;18.10;;;16.30;92.90;;;;;;5034380;28;20540;-70
2023/06/16 01:50:05;;;;;;;22.23;20.10;;;16.30;93.00;;;;;;5035627;28;20445;-70
2023/06/16 01:52:33;;;;;;;19.63;17.80;;;16.30;93.10;;;;;;5035582;28;20413;-71
2023/06/16 01:55:04;;;;;;;19.07;17.17;;;16.30;93.20;;;;;;5034520;28;20932;-71
2023/06/16 01:57:35;;;;;;;20.90;18.97;;;16.30;93.30;;;;;;5033962;28;20466;-71
2023/06/16 02:00:08;;;;;;;20.40;18.40;;;16.30;93.40;;;;;;5034657;28;20443;-70
2023/06/16 02:02:46;;;;;;;21.90;19.53;;;16.30;93.40;;;;;;5035684;28;20411;-71
2023/06/16 02:05:17;;;;;;;21.40;19.47;;;16.30;93.50;;;;;;5033973;28;20841;-70
2023/06/16 02:07:47;;;;;;;19.87;17.97;;;16.30;93.60;;;;;;5035528;28;20936;-70
2023/06/16 02:10:16;;;;;;;20.80;18.80;;;16.20;93.60;;;;;;5035510;28;20419;-71
2023/06/16 02:12:47;;;;;;;21.93;19.93;;;16.20;93.70;;;;;;5035952;28;20416;-70
2023/06/16 02:15:18;;;;;;;21.27;19.17;;;16.20;93.80;;;;;;5035644;28;20427;-71
2023/06/16 02:17:47;;;;;;;22.00;19.80;;;16.20;94.00;;;;;;5033766;28;20507;-70
2023/06/16 02:20:17;;;;;;;23.40;21.20;;;16.20;94.00;;;;;;5035297;28;20473;-71
2023/06/16 02:22:46;;;;;;;21.93;19.93;;;16.20;94.20;;;;;;5035908;28;20451;-70
2023/06/16 02:25:14;;;;;;;26.37;23.90;;;16.10;94.20;;;;;;5033188;28;20467;-71
2023/06/16 02:27:43;;;;;;;23.67;21.47;;;16.10;94.40;;;;;;5032899;28;20437;-71
2023/06/16 02:30:15;;;;;;;22.40;20.20;;;16.10;94.50;;;;;;5033017;28;20880;-71
2023/06/16 02:32:43;;;;;;;23.90;21.57;;;16.10;94.70;;;;;;5033307;28;20489;-71
2023/06/16 02:35:27;;;;;;;25.00;22.70;;;16.10;94.80;;;;;;5034010;28;20526;-70
2023/06/16 02:37:57;;;;;;;26.00;23.40;;;16.00;94.90;;;;;;5033587;28;20495;-71
2023/06/16 02:40:25;;;;;;;25.43;23.23;;;16.00;95.10;;;;;;5033477;28;20539;-70
2023/06/16 02:42:55;;;;;;;28.13;25.37;;;16.00;95.20;;;;;;5034599;28;20458;-70
2023/06/16 02:45:24;;;;;;;28.17;25.27;;;15.90;95.30;;;;;;5034721;28;20441;-70
2023/06/16 02:47:53;;;;;;;26.30;23.90;;;15.90;95.50;;;;;;5033652;28;21026;-70
2023/06/16 02:50:22;;;;;;;26.70;24.30;;;15.90;95.70;;;;;;5033510;28;20472;-71
2023/06/16 02:52:51;;;;;;;25.30;22.90;;;15.90;96.10;;;;;;5033287;28;20980;-70
2023/06/16 02:55:21;;;;;;;27.73;25.33;;;15.90;95.90;;;;;;5033466;28;20425;-71
2023/06/16 02:57:54;;;;;;;28.83;25.97;;;15.90;96.00;;;;;;5033577;28;20467;-71
2023/06/16 03:00:25;;;;;;;29.10;26.30;;;15.90;96.10;;;;;;5033169;28;21012;-70
2023/06/16 03:03:11;;;;;;;27.00;24.60;;;15.90;96.30;;;;;;5033137;28;20454;-70
2023/06/16 03:05:42;;;;;;;30.17;27.57;;;15.80;96.30;;;;;;5033222;28;20482;-70
2023/06/16 03:08:10;;;;;;;28.40;25.80;;;15.80;96.50;;;;;;5033023;28;20441;-70
2023/06/16 03:10:38;;;;;;;28.70;26.20;;;15.80;96.60;;;;;;5033323;28;20428;-70
2023/06/16 03:13:10;;;;;;;29.23;26.63;;;15.80;96.80;;;;;;5033793;28;20431;-71
2023/06/16 03:15:39;;;;;;;27.10;24.60;;;15.80;96.90;;;;;;5034444;28;20441;-70
2023/06/16 03:18:08;;;;;;;27.80;25.10;;;15.80;97.00;;;;;;5033103;28;20991;-70
2023/06/16 03:20:37;;;;;;;28.63;26.03;;;15.80;97.10;;;;;;5034656;28;20438;-70
2023/06/16 03:23:14;;;;;;;27.50;25.00;;;15.80;97.20;;;;;;5034732;28;20390;-71
2023/06/16 03:25:43;;;;;;;28.40;26.00;;;15.80;97.30;;;;;;5033069;28;20473;-71
2023/06/16 03:28:14;;;;;;;21.97;19.93;;;15.80;97.50;;;;;;5033105;28;20451;-71
2023/06/16 03:30:45;;;;;;;28.10;25.40;;;15.80;97.50;;;;;;5033255;28;20430;-71
2023/06/16 03:33:16;;;;;;;28.50;25.73;;;15.80;97.60;;;;;;5032757;28;20505;-70
2023/06/16 03:35:46;;;;;;;28.37;25.67;;;15.80;97.70;;;;;;5032841;28;20509;-70
2023/06/16 03:38:33;;;;;;;27.53;25.13;;;15.80;97.80;;;;;;5032220;28;20443;-70
2023/06/16 03:41:01;;;;;;;28.10;25.70;;;15.80;98.20;;;;;;5032459;28;20459;-70
2023/06/16 03:43:30;;;;;;;28.20;25.60;;;15.80;98.00;;;;;;5032258;28;20422;-71
2023/06/16 03:46:00;;;;;;;28.53;26.03;;;15.80;98.10;;;;;;5034824;28;20489;-70
2023/06/16 03:48:30;;;;;;;26.53;24.03;;;15.80;98.20;;;;;;5036191;28;20445;-70
2023/06/16 03:51:02;;;;;;;27.83;25.40;;;15.80;98.30;;;;;;5036132;28;20413;-71
2023/06/16 03:53:30;;;;;;;28.00;25.30;;;15.80;98.40;;;;;;5035913;28;20959;-70
2023/06/16 03:55:59;;;;;;;27.83;25.17;;;15.80;98.50;;;;;;5036247;28;20447;-70
2023/06/16 03:58:28;;;;;;;26.90;24.47;;;15.80;98.60;;;;;;5036512;28;20437;-70
2023/06/16 04:00:57;;;;;;;24.87;22.60;;;15.80;98.70;;;;;;5036355;28;20429;-71
2023/06/16 04:03:27;;;;;;;24.50;22.30;;;15.80;98.80;;;;;;5035800;28;20446;-71
2023/06/16 04:05:56;;;;;;;26.77;24.40;;;15.80;99.00;;;;;;5035911;28;20437;-71
2023/06/16 04:08:25;;;;;;;25.17;22.93;;;15.80;99.00;;;;;;5036024;28;20434;-71
2023/06/16 04:10:57;;;;;;;25.87;23.53;;;15.90;99.10;;;;;;5035870;28;20489;-70
2023/06/16 04:13:27;;;;;;;24.37;22.07;;;15.90;99.20;;;;;;5036420;28;20416;-71
2023/06/16 04:15:55;;;;;;;19.27;17.40;;;15.90;99.30;;;;;;5035887;28;20456;-70
2023/06/16 04:18:24;;;;;;;25.83;23.20;;;15.90;99.30;;;;;;5035770;28;20824;-70
2023/06/16 04:20:55;;;;;;;23.83;21.63;;;15.90;99.40;;;;;;5035971;28;20487;-70
2023/06/16 04:23:23;;;;;;;22.13;20.03;;;15.90;99.50;;;;;;5036013;28;20422;-71
2023/06/16 04:25:52;;;;;;;22.23;20.27;;;15.90;99.80;;;;;;5035173;28;20558;-71
2023/06/16 04:28:21;;;;;;;22.13;20.03;;;16.00;99.60;;;;;;5035092;28;20529;-70
2023/06/16 04:30:56;;;;;;;24.00;21.80;;;16.00;99.70;;;;;;5035050;28;20536;-71
2023/06/16 04:33:27;;;;;;;24.00;21.60;;;16.00;99.70;;;;;;5035266;28;21001;-71
2023/06/16 04:35:56;;;;;;;23.23;21.20;;;16.00;99.80;;;;;;5035268;28;20526;-71
2023/06/16 04:38:25;;;;;;;24.57;22.17;;;16.00;99.80;;;;;;5035350;28;20441;-71
2023/06/16 04:40:56;;;;;;;25.53;22.20;;;16.10;99.90;;;;;;5035262;28;20439;-71
2023/06/16 04:43:24;;;;;;;24.50;22.23;;;16.10;99.90;;;;;;5036518;28;20412;-71
2023/06/16 04:45:53;;;;;;;23.67;21.47;;;16.10;99.90;;;;;;5035111;28;21102;-71
2023/06/16 04:48:21;;;;;;;26.67;24.17;;;16.10;99.90;;;;;;5034981;28;20462;-71
2023/06/16 04:50:50;;;;;;;25.73;23.33;;;16.10;99.90;;;;;;5035371;28;20447;-71
2023/06/16 04:53:20;;;;;;;26.20;23.77;;;16.20;99.90;;;;;;5035255;28;20463;-70
2023/06/16 04:55:48;;;;;;;28.03;25.53;;;16.20;99.90;;;;;;5035268;28;20526;-71
2023/06/16 04:58:17;;;;;;;28.00;25.50;;;16.20;99.90;;;;;;5034174;28;21006;-71
2023/06/16 05:00:45;;;;;;;27.30;24.80;;;16.20;99.90;;;;;;5035093;28;20509;-71
2023/06/16 05:03:13;;;;;;;29.07;26.40;;;16.30;99.90;;;;;;5035288;28;20446;-70
2023/06/16 05:05:41;;;;;;;28.70;26.07;;;16.30;99.90;;;;;;5035001;28;20965;-71
2023/06/16 05:08:11;;;;;;;26.30;23.90;;;16.30;99.90;;;;;;5034984;28;20553;-71
2023/06/16 05:10:41;;;;;;;30.33;27.37;;;16.30;99.90;;;;;;5035395;28;20533;-71
2023/06/16 05:13:09;;;;;;;29.50;26.87;;;16.30;99.90;;;;;;5035113;28;20500;-71
2023/06/16 05:15:37;;;;;;;29.73;26.90;;;16.30;99.90;;;;;;5035530;28;20446;-71
2023/06/16 05:18:05;;;;;;;29.43;26.67;;;16.40;99.90;;;;;;5036375;28;20840;-70
2023/06/16 05:20:34;;;;;;;29.23;26.53;;;16.40;99.90;;;;;;5035090;28;20855;-70
2023/06/16 05:23:03;;;;;;;27.70;25.20;;;16.40;99.90;;;;;;5035297;28;20421;-70
2023/06/16 05:25:31;;;;;;;26.63;24.13;;;16.40;99.90;;;;;;5034978;28;21136;-70
2023/06/16 05:28:06;;;;;;;26.83;24.40;;;16.40;99.90;;;;;;5035123;28;20466;-70
2023/06/16 05:30:34;;;;;;;26.93;24.70;;;16.50;99.90;;;;;;5035218;28;20780;-70
2023/06/16 05:33:03;;;;;;;27.30;24.90;;;16.50;99.90;;;;;;5035011;28;20564;-70
2023/06/16 05:35:31;;;;;;;25.77;23.20;;;16.60;99.90;;;;;;5035392;28;20949;-71
2023/06/16 05:37:59;;;;;;;26.30;23.87;;;16.60;99.90;;;;;;5034262;28;20825;-71
2023/06/16 05:40:28;;;;;;;27.03;24.37;;;16.60;99.90;;;;;;5034019;28;20465;-70
2023/06/16 05:42:57;;;;;;;25.57;23.27;;;16.60;99.90;;;;;;5034144;28;20474;-71
2023/06/16 05:45:27;;;;;;;23.03;20.90;;;16.70;99.90;;;;;;5034112;28;20418;-71
2023/06/16 05:47:55;;;;;;;25.70;23.37;;;16.70;99.90;;;;;;5034477;28;20463;-71
2023/06/16 05:50:24;;;;;;;26.87;24.27;;;16.70;99.90;;;;;;5034058;28;20455;-71
2023/06/16 05:52:53;;;;;;;24.40;22.03;;;16.80;99.90;;;;;;5050950;28;20449;-71
2023/06/16 05:55:21;;;;;;;25.53;23.13;;;16.80;99.90;;;;;;5034295;28;20462;-71
2023/06/16 05:57:54;;;;;;;25.87;23.37;;;16.90;99.90;;;;;;5033877;28;20470;-71
2023/06/16 06:00:23;;;;;;;24.10;21.97;;;16.90;99.90;;;;;;5051106;28;20501;-71
2023/06/16 06:02:59;;;;;;;23.10;21.00;;;17.00;99.90;;;;;;5034025;28;20447;-71
2023/06/16 06:05:29;;;;;;;24.27;21.87;;;17.00;99.90;;;;;;5034143;28;20526;-71
2023/06/16 06:07:58;;;;;;;27.03;24.53;;;17.10;99.90;;;;;;5035182;28;20471;-70
2023/06/16 06:10:27;;;;;;;24.77;22.57;;;17.20;99.90;;;;;;5033966;28;20424;-71
2023/06/16 06:12:57;;;;;;;24.07;21.97;;;17.30;99.90;;;;;;5033666;28;20474;-71
2023/06/16 06:15:26;;;;;;;24.50;22.30;;;17.50;99.90;;;;;;5034501;28;20447;-71
2023/06/16 06:18:02;;;;;;;21.43;19.33;;;17.80;99.90;;;;;;5034465;28;20451;-71
2023/06/16 06:20:32;;;;;;;21.33;19.37;;;18.00;99.90;;;;;;5034069;28;20451;-71
2023/06/16 06:23:00;;;;;;;21.07;19.17;;;18.30;99.90;;;;;;5033802;28;20944;-70
2023/06/16 06:25:29;;;;;;;20.10;18.20;;;18.50;99.90;;;;;;5033501;28;20443;-71
2023/06/16 06:27:58;;;;;;;22.33;20.23;;;18.70;99.90;;;;;;5034741;28;20455;-71
2023/06/16 06:30:27;;;;;;;19.13;17.30;;;18.90;99.90;;;;;;5034720;28;20454;-71
2023/06/16 06:32:57;;;;;;;18.57;16.77;;;19.10;99.90;;;;;;5033852;28;20811;-71
2023/06/16 06:35:26;;;;;;;18.93;16.93;;;19.30;99.90;;;;;;5033835;28;20455;-71
2023/06/16 06:37:56;;;;;;;16.57;14.87;;;19.50;99.90;;;;;;5033759;28;20854;-71
2023/06/16 06:40:24;;;;;;;17.90;16.10;;;19.60;99.90;;;;;;5033958;28;20443;-71
2023/06/16 06:42:54;;;;;;;16.50;14.80;;;19.80;99.90;;;;;;5033591;28;20442;-71
2023/06/16 06:45:42;;;;;;;16.20;14.50;;;20.00;99.90;;;;;;5034198;28;20864;-72
2023/06/16 06:48:10;;;;;;;18.27;16.67;;;20.10;99.90;;;;;;5035181;28;20784;-71
2023/06/16 06:50:42;;;;;;;17.60;16.00;;;20.30;99.90;;;;;;5034217;28;20455;-71
2023/06/16 06:53:10;;;;;;;17.20;15.70;;;20.40;99.90;;;;;;5035199;28;20447;-71
2023/06/16 06:55:38;;;;;;;17.10;15.37;;;20.50;99.90;;;;;;5034510;28;20442;-71
2023/06/16 06:58:06;;;;;;;17.87;16.17;;;20.60;99.90;;;;;;5034592;28;21009;-71
2023/06/16 07:00:34;;;;;;;18.40;15.30;;;20.70;99.90;;;;;;5035250;28;21024;-71
2023/06/16 07:03:03;;;;;;;17.23;15.73;;;20.80;99.90;;;;;;5035196;28;20475;-71
2023/06/16 07:05:33;;;;;;;18.03;16.40;;;20.80;99.90;;;;;;5035294;28;20445;-71
2023/06/16 07:08:04;;;;;;;17.27;14.93;;;20.90;99.90;;;;;;5033502;28;20486;-71
2023/06/16 07:10:32;;;;;;;19.13;15.87;;;21.00;99.90;;;;;;5034427;28;20451;-71
2023/06/16 07:13:01;;;;;;;15.40;14.00;;;21.10;99.90;;;;;;5032560;28;20455;-72
2023/06/16 07:15:29;;;;;;;15.70;14.30;;;21.20;99.90;;;;;;5034128;28;20534;-72
2023/06/16 07:17:57;;;;;;;15.17;13.70;;;21.30;99.90;;;;;;5033889;28;21022;-71
2023/06/16 07:20:25;;;;;;;13.90;12.40;;;21.30;99.90;;;;;;5033166;28;20431;-71
2023/06/16 07:22:53;;;;;;;16.03;14.33;;;21.40;99.90;;;;;;5033985;28;20450;-72
2023/06/16 07:25:22;;;;;;;15.30;13.67;;;21.40;99.90;;;;;;5034180;28;20533;-72
2023/06/16 07:27:51;;;;;;;14.87;13.40;;;21.50;99.90;;;;;;5034186;28;20474;-72
2023/06/16 07:30:19;;;;;;;14.70;13.27;;;21.60;99.90;;;;;;5034037;28;20446;-71
2023/06/16 07:32:49;;;;;;;14.40;13.10;;;21.60;99.90;;;;;;5034172;28;20994;-72
2023/06/16 07:35:19;;;;;;;15.07;13.70;;;21.70;99.90;;;;;;5034665;28;20435;-72
2023/06/16 07:37:48;;;;;;;15.30;13.90;;;21.80;99.70;;;;;;5034285;28;20461;-72
2023/06/16 07:40:16;;;;;;;15.77;14.27;;;21.80;99.60;;;;;;5035159;28;20435;-72
2023/06/16 07:42:46;;;;;;;14.47;13.07;;;21.90;99.50;;;;;;5034548;28;20443;-72
2023/06/16 07:45:17;;;;;;;14.83;13.53;;;21.90;99.50;;;;;;5034493;28;20489;-73
2023/06/16 07:47:46;;;;;;;15.50;14.00;;;21.90;99.40;;;;;;5034172;28;20528;-72
2023/06/16 07:50:15;;;;;;;15.97;14.37;;;22.00;99.40;;;;;;5033950;28;20435;-72
2023/06/16 07:52:44;;;;;;;13.63;12.23;;;22.00;99.40;;;;;;5032391;28;20455;-72
2023/06/16 07:55:12;;;;;;;13.33;12.13;;;22.10;99.50;;;;;;5034208;28;20449;-72
2023/06/16 07:57:40;;;;;;;13.23;12.03;;;22.20;99.30;;;;;;5034699;28;20462;-72
2023/06/16 08:00:12;;;;;;;13.60;12.20;;;22.30;99.10;;;;;;5034863;28;20832;-71
2023/06/16 08:02:40;;;;;;;12.70;11.40;;;22.40;98.90;;;;;;5033870;28;20751;-72
2023/06/16 08:05:11;;;;;;;11.70;10.10;;;22.40;98.80;;;;;;5033825;28;20446;-72
2023/06/16 08:07:39;;;;;;;15.03;12.40;;;22.40;98.80;;;;;;5034109;28;20565;-72
2023/06/16 08:10:08;;;;;;;11.97;10.80;;;22.50;98.60;;;;;;5034083;28;20522;-73
2023/06/16 08:12:36;;;;;;;12.70;11.50;;;22.60;98.40;;;;;;5034306;28;20431;-72
2023/06/16 08:15:06;;;;;;;12.70;11.53;;;22.70;98.30;;;;;;5033993;28;20433;-72
2023/06/16 08:17:36;;;;;;;13.23;12.03;;;22.70;98.20;;;;;;5034738;28;20812;-72
2023/06/16 08:20:05;;;;;;;14.17;12.57;;;22.80;98.20;;;;;;5033257;28;20447;-72
2023/06/16 08:22:34;;;;;;;12.67;11.50;;;22.80;98.10;;;;;;5033641;28;20805;-72
2023/06/16 08:25:02;;;;;;;13.53;12.23;;;22.90;98.10;;;;;;5034064;28;20462;-72
2023/06/16 08:27:30;;;;;;;13.07;11.73;;;22.90;98.00;;;;;;5033885;28;21058;-72
2023/06/16 08:29:58;;;;;;;14.40;11.30;;;23.00;97.90;;;;;;5033707;28;20493;-72
2023/06/16 08:32:26;;;;;;;11.50;10.50;;;23.00;97.80;;;;;;5032733;28;20497;-72
2023/06/16 08:34:56;;;;;;;12.00;10.80;;;23.00;97.60;;;;;;5037630;28;20459;-74
2023/06/16 08:37:25;;;;;;;11.37;10.27;;;23.10;97.50;;;;;;5036230;28;20507;-73
2023/06/16 08:39:58;;;;;;;10.70;9.70;;;23.10;97.40;;;;;;5035936;28;20443;-72
2023/06/16 08:42:27;;;;;;;11.30;10.20;;;23.10;97.50;;;;;;5036483;28;20962;-73
2023/06/16 08:44:56;;;;;;;11.20;9.60;;;23.20;97.40;;;;;;5036571;28;20788;-72
2023/06/16 08:47:26;;;;;;;11.00;9.87;;;23.20;97.20;;;;;;5040449;28;20923;-72
2023/06/16 08:49:56;;;;;;;11.07;10.00;;;23.30;97.10;;;;;;5041141;28;20450;-72
2023/06/16 08:52:26;;;;;;;11.13;9.37;;;23.40;97.10;;;;;;5037524;28;20443;-72
2023/06/16 08:55:13;;;;;;;11.27;10.17;;;23.50;97.00;;;;;;5039747;28;20781;-73
2023/06/16 08:57:46;;;;;;;11.03;10.00;;;23.50;96.90;;;;;;5039498;28;20458;-73
2023/06/16 09:00:16;;;;;;;10.97;9.97;;;23.60;97.00;;;;;;5037730;28;20415;-72
2023/06/16 09:02:48;;;;;;;12.10;9.20;;;23.60;96.90;;;;;;5038490;28;20836;-72
2023/06/16 09:05:20;;;;;;;11.70;10.60;;;23.60;96.80;;;;;;5038283;28;20484;-72
2023/06/16 09:07:49;;;;;;;10.70;9.60;;;23.60;96.60;;;;;;5037863;28;20494;-73
2023/06/16 09:10:18;;;;;;;11.40;10.20;;;23.50;96.60;;;;;;5038550;28;20432;-73
2023/06/16 09:12:52;;;;;;;12.30;10.57;;;23.50;96.50;;;;;;5038363;28;20439;-72
2023/06/16 09:15:21;;;;;;;9.47;8.63;;;23.40;96.40;;;;;;5036244;28;20443;-73
2023/06/16 09:17:50;;;;;;;11.27;10.07;;;23.40;96.40;;;;;;5037406;28;20455;-73
2023/06/16 09:20:23;;;;;;;10.60;9.60;;;23.40;96.40;;;;;;5036504;28;20435;-72
2023/06/16 09:22:59;;;;;;;9.70;8.80;;;23.40;96.40;;;;;;5037680;28;20442;-72
2023/06/16 09:25:27;;;;;;;13.23;9.90;;;23.50;96.40;;;;;;5037439;28;20415;-73
2023/06/16 09:27:56;;;;;;;9.37;8.23;;;23.50;96.30;;;;;;5036072;28;20561;-73
2023/06/16 09:30:33;;;;;;;10.47;9.37;;;23.60;96.30;;;;;;5037319;28;20952;-72
2023/06/16 09:33:02;;;;;;;10.60;9.50;;;23.70;96.30;;;;;;5036945;28;20427;-72
2023/06/16 09:35:32;;;;;;;11.57;8.53;;;23.80;96.30;;;;;;5035821;28;20813;-73
2023/06/16 09:38:03;;;;;;;10.20;8.60;;;23.80;96.30;;;;;;5037623;28;20509;-73
2023/06/16 09:40:33;;;;;;;9.30;8.40;;;23.90;96.40;;;;;;5037414;28;20502;-73
2023/06/16 09:43:06;;;;;;;9.77;8.87;;;23.90;96.40;;;;;;5037337;28;20470;-73
2023/06/16 09:45:35;;;;;;;9.80;8.90;;;24.00;96.20;;;;;;5036849;28;20411;-72
2023/06/16 09:48:04;;;;;;;11.37;10.27;;;24.00;96.30;;;;;;5037105;28;20486;-72
2023/06/16 09:50:36;;;;;;;9.13;8.27;;;24.10;95.90;;;;;;5036988;28;20435;-72
2023/06/16 09:53:06;;;;;;;9.13;8.10;;;24.10;95.80;;;;;;5037150;28;20427;-71
2023/06/16 09:55:37;;;;;;;9.07;8.17;;;24.10;95.70;;;;;;5036489;28;20470;-71
2023/06/16 09:58:05;;;;;;;9.23;8.30;;;24.10;95.60;;;;;;5035979;28;20478;-71
2023/06/16 10:00:34;;;;;;;9.50;8.60;;;24.00;95.50;;;;;;5036662;28;20431;-72
2023/06/16 10:03:04;;;;;;;9.00;8.20;;;23.90;95.50;;;;;;5036980;28;20441;-71
2023/06/16 10:05:35;;;;;;;12.70;7.90;;;23.90;95.60;;;;;;5036622;28;20462;-72
2023/06/16 10:08:05;;;;;;;9.93;8.70;;;23.90;95.20;;;;;;5035934;28;20471;-70
2023/06/16 10:10:35;;;;;;;9.60;8.60;;;23.90;95.20;;;;;;5035719;28;20473;-71
2023/06/16 10:13:06;;;;;;;10.73;8.50;;;23.90;95.60;;;;;;5033494;28;21094;-71
2023/06/16 10:15:39;;;;;;;10.03;9.13;;;24.00;95.30;;;;;;5034765;28;20893;-71
2023/06/16 10:18:08;;;;;;;12.23;9.70;;;24.00;95.20;;;;;;5034905;28;20478;-71
2023/06/16 10:20:42;;;;;;;9.87;8.70;;;24.10;95.20;;;;;;5034998;28;20469;-71
2023/06/16 10:23:11;;;;;;;9.90;8.93;;;24.20;95.20;;;;;;5034634;28;20423;-71
2023/06/16 10:25:40;;;;;;;10.80;8.77;;;24.20;95.20;;;;;;5034616;28;20533;-71
2023/06/16 10:28:13;;;;;;;10.03;9.03;;;24.30;95.30;;;;;;5034440;28;20513;-72
2023/06/16 10:30:43;;;;;;;11.20;10.13;;;24.30;95.20;;;;;;5034395;28;20463;-72
2023/06/16 10:33:22;;;;;;;10.93;8.40;;;24.30;95.20;;;;;;5034315;28;20419;-71
2023/06/16 10:35:52;;;;;;;9.70;8.80;;;24.40;95.30;;;;;;5034736;28;20880;-72
2023/06/16 10:38:35;;;;;;;10.30;9.30;;;24.50;95.30;;;;;;5034460;28;20458;-72
2023/06/16 10:41:03;;;;;;;10.20;9.27;;;24.60;95.30;;;;;;5034672;28;20427;-71
2023/06/16 10:43:31;;;;;;;10.50;9.37;;;24.60;95.20;;;;;;5033035;28;20439;-71
2023/06/16 10:46:15;;;;;;;10.90;9.80;;;24.70;95.20;;;;;;5034229;28;20462;-72
2023/06/16 10:49:20;;;;;;;10.40;9.30;;;24.70;95.00;;;;;;5034169;28;20467;-71
2023/06/16 10:51:52;;;;;;;9.43;8.30;;;24.60;95.00;;;;;;5034569;28;20916;-71
2023/06/16 10:54:43;;;;;;;10.80;9.50;;;24.60;95.10;;;;;;5034463;28;20423;-71
2023/06/16 10:57:12;;;;;;;10.43;9.03;;;24.60;95.00;;;;;;5033835;28;20458;-71
2023/06/16 11:00:11;;;;;;;12.20;10.20;;;24.50;94.90;;;;;;5034614;28;20514;-72
2023/06/16 11:02:48;;;;;;;10.23;9.33;;;24.50;94.90;;;;;;5029682;28;20479;-71
2023/06/16 11:05:20;;;;;;;10.13;9.17;;;24.50;94.90;;;;;;5034824;28;20492;-72
2023/06/16 11:08:14;;;;;;;9.13;8.27;;;24.50;94.90;;;;;;5034297;28;20459;-71
2023/06/16 11:10:49;;;;;;;8.60;7.80;;;24.60;94.90;;;;;;5034287;28;20454;-71
2023/06/16 11:13:19;;;;;;;10.37;9.30;;;24.70;94.80;;;;;;5034037;28;20474;-71
2023/06/16 11:15:47;;;;;;;9.60;8.60;;;24.70;94.60;;;;;;5034084;28;20432;-72
2023/06/16 11:18:17;;;;;;;9.77;8.90;;;24.80;94.50;;;;;;5033639;28;20861;-72
2023/06/16 11:20:45;;;;;;;10.30;9.03;;;24.80;94.50;;;;;;5034235;28;20525;-72
2023/06/16 11:23:14;;;;;;;9.80;8.30;;;24.90;94.40;;;;;;5034453;28;20445;-72
2023/06/16 11:25:42;;;;;;;10.73;8.57;;;24.90;94.30;;;;;;5033951;28;20435;-72
2023/06/16 11:28:11;;;;;;;10.00;8.57;;;25.00;94.20;;;;;;5034219;28;20471;-71
2023/06/16 11:30:39;;;;;;;9.20;8.30;;;25.00;94.10;;;;;;5032476;28;20990;-71
2023/06/16 11:33:08;;;;;;;10.77;7.93;;;25.00;94.10;;;;;;5033655;28;20450;-71
2023/06/16 11:35:36;;;;;;;9.47;8.47;;;25.00;94.20;;;;;;5033978;28;20439;-70
2023/06/16 11:38:04;;;;;;;8.77;7.87;;;25.10;94.10;;;;;;5033571;28;20466;-70
2023/06/16 11:40:35;;;;;;;8.67;7.87;;;25.10;93.90;;;;;;5033660;28;20435;-71
2023/06/16 11:43:04;;;;;;;8.70;7.90;;;25.20;93.70;;;;;;5032356;28;20454;-71
2023/06/16 11:45:37;;;;;;;8.40;7.50;;;25.10;93.60;;;;;;5033581;28;20435;-71
2023/06/16 11:48:08;;;;;;;9.40;8.40;;;25.20;93.70;;;;;;5031859;28;20475;-71
2023/06/16 11:50:38;;;;;;;8.67;7.77;;;25.30;93.60;;;;;;5032268;28;20987;-71
2023/06/16 11:53:06;;;;;;;9.20;7.43;;;25.30;93.40;;;;;;5031982;28;20782;-71
2023/06/16 11:55:35;;;;;;;8.10;6.93;;;25.30;93.10;;;;;;5033287;28;20886;-71
2023/06/16 11:58:03;;;;;;;7.80;7.03;;;25.30;92.50;;;;;;5033387;28;20465;-71
2023/06/16 12:00:32;;;;;;;7.97;6.80;;;25.30;92.20;;;;;;5031957;28;20978;-71
2023/06/16 12:03:00;;;;;;;8.43;7.47;;;25.30;92.20;;;;;;5033974;28;20853;-71
2023/06/16 12:05:29;;;;;;;10.30;8.73;;;25.30;92.20;;;;;;5033462;28;20478;-72
2023/06/16 12:07:57;;;;;;;10.03;7.17;;;25.40;92.00;;;;;;5035760;28;20477;-71
2023/06/16 12:10:26;;;;;;;8.80;7.90;;;25.40;92.00;;;;;;5037243;28;20459;-71
2023/06/16 12:12:56;;;;;;;7.80;6.70;;;25.50;92.00;;;;;;5037210;28;20792;-71
2023/06/16 12:15:24;;;;;;;8.10;7.27;;;25.60;92.10;;;;;;5036982;28;20520;-71
2023/06/16 12:17:56;;;;;;;7.70;7.00;;;25.60;92.20;;;;;;5037342;28;20987;-71
2023/06/16 12:20:25;;;;;;;7.30;6.60;;;25.70;92.10;;;;;;5037009;28;20477;-71
2023/06/16 12:22:55;;;;;;;7.40;6.70;;;25.80;91.80;;;;;;5037036;28;20534;-71
2023/06/16 12:25:24;;;;;;;8.00;7.20;;;25.80;91.70;;;;;;5037316;28;20423;-71
2023/06/16 12:27:52;;;;;;;6.70;6.07;;;25.80;91.70;;;;;;5037169;28;20457;-71
2023/06/16 12:30:32;;;;;;;8.73;7.87;;;25.90;91.60;;;;;;5036823;28;20478;-71
2023/06/16 12:33:08;;;;;;;8.80;6.70;;;26.00;91.70;;;;;;5037409;28;20931;-71
2023/06/16 12:35:36;;;;;;;7.30;6.60;;;26.00;91.40;;;;;;5036903;28;20462;-71
2023/06/16 12:38:05;;;;;;;8.20;6.83;;;26.10;91.30;;;;;;5036837;28;20451;-71
2023/06/16 12:40:33;;;;;;;9.83;7.20;;;26.10;90.90;;;;;;5037087;28;20446;-71
2023/06/16 12:43:24;;;;;;;7.77;7.07;;;26.10;90.70;;;;;;5036891;28;20445;-71
2023/06/16 12:45:53;;;;;;;14.03;7.40;;;26.10;90.90;;;;;;5036717;28;20443;-71
2023/06/16 12:48:22;;;;;;;7.60;6.87;;;26.10;90.80;;;;;;5036609;28;20462;-71